sensor_id;sensor_type;location;lat;lon;timestamp;temperature;humidity
70076;DHT22;63241;51.056;3.698;2023-06-14T00:02:11;20.40;65.30
70076;DHT22;63241;51.056;3.698;2023-06-14T00:04:57;20.40;65.50
70076;DHT22;63241;51.056;3.698;2023-06-14T00:07:51;20.30;66.20
70076;DHT22;63241;51.056;3.698;2023-06-14T00:10:58;20.30;65.90
70076;DHT22;63241;51.056;3.698;2023-06-14T00:13:45;20.20;66.00
70076;DHT22;63241;51.056;3.698;2023-06-14T00:16:31;20.10;66.40
70076;DHT22;63241;51.056;3.698;2023-06-14T00:19:18;20.10;66.80
70076;DHT22;63241;51.056;3.698;2023-06-14T00:22:34;20.10;66.90
70076;DHT22;63241;51.056;3.698;2023-06-14T00:25:48;20.00;66.80
70076;DHT22;63241;51.056;3.698;2023-06-14T00:28:35;19.90;66.80
70076;DHT22;63241;51.056;3.698;2023-06-14T00:31:21;19.80;66.80
70076;DHT22;63241;51.056;3.698;2023-06-14T00:34:07;19.70;66.80
70076;DHT22;63241;51.056;3.698;2023-06-14T00:40:35;19.60;67.70
70076;DHT22;63241;51.056;3.698;2023-06-14T00:43:22;19.50;68.10
70076;DHT22;63241;51.056;3.698;2023-06-14T00:46:08;19.50;68.80
70076;DHT22;63241;51.056;3.698;2023-06-14T00:55:04;19.30;68.50
70076;DHT22;63241;51.056;3.698;2023-06-14T00:57:50;19.30;68.70
70076;DHT22;63241;51.056;3.698;2023-06-14T01:00:37;19.20;68.60
70076;DHT22;63241;51.056;3.698;2023-06-14T01:10:36;19.10;69.10
70076;DHT22;63241;51.056;3.698;2023-06-14T01:13:24;19.00;69.20
70076;DHT22;63241;51.056;3.698;2023-06-14T01:19:30;18.80;69.40
70076;DHT22;63241;51.056;3.698;2023-06-14T01:22:18;18.80;70.20
70076;DHT22;63241;51.056;3.698;2023-06-14T01:25:05;18.90;70.10
70076;DHT22;63241;51.056;3.698;2023-06-14T01:27:55;18.90;69.50
70076;DHT22;63241;51.056;3.698;2023-06-14T01:34:26;18.80;69.20
70076;DHT22;63241;51.056;3.698;2023-06-14T01:37:13;18.70;69.80
70076;DHT22;63241;51.056;3.698;2023-06-14T01:40:00;18.60;69.80
70076;DHT22;63241;51.056;3.698;2023-06-14T01:46:50;18.60;70.00
70076;DHT22;63241;51.056;3.698;2023-06-14T01:49:38;18.50;70.20
70076;DHT22;63241;51.056;3.698;2023-06-14T01:55:30;18.50;70.30
70076;DHT22;63241;51.056;3.698;2023-06-14T01:58:18;18.60;69.90
70076;DHT22;63241;51.056;3.698;2023-06-14T02:01:04;18.70;69.70
70076;DHT22;63241;51.056;3.698;2023-06-14T02:07:35;18.60;69.00
70076;DHT22;63241;51.056;3.698;2023-06-14T02:10:21;18.60;68.90
70076;DHT22;63241;51.056;3.698;2023-06-14T02:13:08;18.60;68.80
70076;DHT22;63241;51.056;3.698;2023-06-14T02:19:44;18.60;68.20
70076;DHT22;63241;51.056;3.698;2023-06-14T02:22:31;18.60;67.90
70076;DHT22;63241;51.056;3.698;2023-06-14T02:25:17;18.50;68.00
70076;DHT22;63241;51.056;3.698;2023-06-14T02:28:04;18.50;68.00
70076;DHT22;63241;51.056;3.698;2023-06-14T02:37:03;18.50;67.00
70076;DHT22;63241;51.056;3.698;2023-06-14T02:39:49;18.50;66.90
70076;DHT22;63241;51.056;3.698;2023-06-14T02:42:42;18.50;66.60
70076;DHT22;63241;51.056;3.698;2023-06-14T02:45:38;18.40;66.50
70076;DHT22;63241;51.056;3.698;2023-06-14T02:48:37;18.40;66.40
70076;DHT22;63241;51.056;3.698;2023-06-14T02:51:23;18.40;66.30
70076;DHT22;63241;51.056;3.698;2023-06-14T02:54:10;18.40;66.20
70076;DHT22;63241;51.056;3.698;2023-06-14T02:57:33;18.40;66.10
70076;DHT22;63241;51.056;3.698;2023-06-14T03:00:42;18.40;65.90
70076;DHT22;63241;51.056;3.698;2023-06-14T03:03:29;18.40;65.50
70076;DHT22;63241;51.056;3.698;2023-06-14T03:06:15;18.30;65.70
70076;DHT22;63241;51.056;3.698;2023-06-14T03:09:02;18.30;65.70
70076;DHT22;63241;51.056;3.698;2023-06-14T03:15:50;18.20;65.30
70076;DHT22;63241;51.056;3.698;2023-06-14T03:18:37;18.20;65.10
70076;DHT22;63241;51.056;3.698;2023-06-14T03:21:23;18.20;65.10
70076;DHT22;63241;51.056;3.698;2023-06-14T03:28:01;18.10;64.50
70076;DHT22;63241;51.056;3.698;2023-06-14T03:30:47;18.20;64.40
70076;DHT22;63241;51.056;3.698;2023-06-14T03:33:33;18.10;64.10
70076;DHT22;63241;51.056;3.698;2023-06-14T03:36:20;18.20;63.90
70076;DHT22;63241;51.056;3.698;2023-06-14T03:39:44;18.10;63.70
70076;DHT22;63241;51.056;3.698;2023-06-14T03:42:57;18.20;63.60
70076;DHT22;63241;51.056;3.698;2023-06-14T03:45:43;18.20;63.40
70076;DHT22;63241;51.056;3.698;2023-06-14T03:48:30;18.10;63.30
70076;DHT22;63241;51.056;3.698;2023-06-14T03:55:11;18.20;63.20
70076;DHT22;63241;51.056;3.698;2023-06-14T03:57:59;18.10;62.80
70076;DHT22;63241;51.056;3.698;2023-06-14T04:00:45;18.20;62.30
70076;DHT22;63241;51.056;3.698;2023-06-14T04:03:31;18.20;62.10
70076;DHT22;63241;51.056;3.698;2023-06-14T04:06:38;18.40;61.50
70076;DHT22;63241;51.056;3.698;2023-06-14T04:09:45;18.50;60.80
70076;DHT22;63241;51.056;3.698;2023-06-14T04:12:31;18.70;60.00
70076;DHT22;63241;51.056;3.698;2023-06-14T04:15:18;18.90;58.70
70076;DHT22;63241;51.056;3.698;2023-06-14T04:22:12;19.30;57.70
70076;DHT22;63241;51.056;3.698;2023-06-14T04:24:58;19.80;57.20
70076;DHT22;63241;51.056;3.698;2023-06-14T04:27:44;20.40;56.20
70076;DHT22;63241;51.056;3.698;2023-06-14T04:30:32;20.60;54.60
70076;DHT22;63241;51.056;3.698;2023-06-14T04:33:57;21.00;53.70
70076;DHT22;63241;51.056;3.698;2023-06-14T04:37:15;21.30;52.00
70076;DHT22;63241;51.056;3.698;2023-06-14T04:40:02;21.90;50.20
70076;DHT22;63241;51.056;3.698;2023-06-14T04:43:02;23.20;49.10
70076;DHT22;63241;51.056;3.698;2023-06-14T04:49:16;25.40;44.80
70076;DHT22;63241;51.056;3.698;2023-06-14T06:05:54;43.20;20.00
70076;DHT22;63241;51.056;3.698;2023-06-14T06:09:02;43.90;18.90
70076;DHT22;63241;51.056;3.698;2023-06-14T06:14:54;45.40;18.40
70076;DHT22;63241;51.056;3.698;2023-06-14T06:17:40;45.50;17.80
70076;DHT22;63241;51.056;3.698;2023-06-14T06:20:27;45.60;17.60
70076;DHT22;63241;51.056;3.698;2023-06-14T06:26:56;46.30;17.70
70076;DHT22;63241;51.056;3.698;2023-06-14T06:29:42;46.30;17.40
70076;DHT22;63241;51.056;3.698;2023-06-14T06:32:29;47.20;17.20
70076;DHT22;63241;51.056;3.698;2023-06-14T06:35:38;47.90;16.90
70076;DHT22;63241;51.056;3.698;2023-06-14T06:38:41;47.60;16.50
70076;DHT22;63241;51.056;3.698;2023-06-14T06:41:27;47.80;16.50
70076;DHT22;63241;51.056;3.698;2023-06-14T06:44:13;47.90;16.60
70076;DHT22;63241;51.056;3.698;2023-06-14T06:47:00;48.50;16.30
70076;DHT22;63241;51.056;3.698;2023-06-14T06:49:56;47.30;15.90
70076;DHT22;63241;51.056;3.698;2023-06-14T06:52:47;46.60;16.60
70076;DHT22;63241;51.056;3.698;2023-06-14T06:55:33;47.20;17.00
70076;DHT22;63241;51.056;3.698;2023-06-14T06:58:19;48.30;16.50
70076;DHT22;63241;51.056;3.698;2023-06-14T07:01:07;49.30;16.30
70076;DHT22;63241;51.056;3.698;2023-06-14T07:04:15;50.60;15.90
70076;DHT22;63241;51.056;3.698;2023-06-14T07:07:05;51.40;15.50
70076;DHT22;63241;51.056;3.698;2023-06-14T07:09:52;51.60;15.10
70076;DHT22;63241;51.056;3.698;2023-06-14T07:12:38;52.30;15.10
70076;DHT22;63241;51.056;3.698;2023-06-14T07:15:37;52.90;14.80
70076;DHT22;63241;51.056;3.698;2023-06-14T07:18:33;53.40;14.20
70076;DHT22;63241;51.056;3.698;2023-06-14T07:21:28;52.80;14.30
70076;DHT22;63241;51.056;3.698;2023-06-14T07:24:14;53.00;14.40
70076;DHT22;63241;51.056;3.698;2023-06-14T07:27:00;54.30;14.20
70076;DHT22;63241;51.056;3.698;2023-06-14T07:30:03;55.10;13.90
70076;DHT22;63241;51.056;3.698;2023-06-14T07:33:14;54.40;13.60
70076;DHT22;63241;51.056;3.698;2023-06-14T07:35:59;54.40;13.90
70076;DHT22;63241;51.056;3.698;2023-06-14T07:38:46;55.50;14.00
70076;DHT22;63241;51.056;3.698;2023-06-14T07:41:32;54.90;13.70
70076;DHT22;63241;51.056;3.698;2023-06-14T07:47:52;56.50;13.30
70076;DHT22;63241;51.056;3.698;2023-06-14T07:50:38;57.20;13.30
70076;DHT22;63241;51.056;3.698;2023-06-14T07:53:25;58.00;12.60
70076;DHT22;63241;51.056;3.698;2023-06-14T07:56:17;57.40;12.70
70076;DHT22;63241;51.056;3.698;2023-06-14T07:59:30;57.60;12.30
70076;DHT22;63241;51.056;3.698;2023-06-14T08:02:21;57.90;12.50
70076;DHT22;63241;51.056;3.698;2023-06-14T08:05:08;58.10;12.40
70076;DHT22;63241;51.056;3.698;2023-06-14T08:07:55;57.40;12.20
70076;DHT22;63241;51.056;3.698;2023-06-14T08:11:00;57.00;13.00
70076;DHT22;63241;51.056;3.698;2023-06-14T08:14:18;57.40;13.10
70076;DHT22;63241;51.056;3.698;2023-06-14T08:17:05;58.00;13.00
70076;DHT22;63241;51.056;3.698;2023-06-14T08:19:52;57.80;13.00
70076;DHT22;63241;51.056;3.698;2023-06-14T08:22:40;58.70;12.70
70076;DHT22;63241;51.056;3.698;2023-06-14T08:25:33;59.30;12.50
70076;DHT22;63241;51.056;3.698;2023-06-14T08:28:34;60.10;12.30
70076;DHT22;63241;51.056;3.698;2023-06-14T08:31:20;60.60;12.20
70076;DHT22;63241;51.056;3.698;2023-06-14T08:34:07;60.60;11.90
70076;DHT22;63241;51.056;3.698;2023-06-14T08:36:54;59.80;12.20
70076;DHT22;63241;51.056;3.698;2023-06-14T08:39:51;60.20;11.90
70076;DHT22;63241;51.056;3.698;2023-06-14T08:42:58;59.80;12.20
70076;DHT22;63241;51.056;3.698;2023-06-14T08:45:46;59.20;11.90
70076;DHT22;63241;51.056;3.698;2023-06-14T08:48:36;59.10;12.20
70076;DHT22;63241;51.056;3.698;2023-06-14T08:54:19;60.50;12.00
70076;DHT22;63241;51.056;3.698;2023-06-14T08:57:12;59.70;11.60
70076;DHT22;63241;51.056;3.698;2023-06-14T09:00:03;58.60;12.00
70076;DHT22;63241;51.056;3.698;2023-06-14T09:02:52;60.00;12.10
70076;DHT22;63241;51.056;3.698;2023-06-14T09:05:52;59.70;11.50
70076;DHT22;63241;51.056;3.698;2023-06-14T09:08:45;59.20;11.60
70076;DHT22;63241;51.056;3.698;2023-06-14T09:11:35;60.10;11.40
70076;DHT22;63241;51.056;3.698;2023-06-14T09:14:23;60.80;11.20
70076;DHT22;63241;51.056;3.698;2023-06-14T09:17:13;60.90;11.20
70076;DHT22;63241;51.056;3.698;2023-06-14T09:20:06;61.00;11.20
70076;DHT22;63241;51.056;3.698;2023-06-14T09:23:10;60.50;11.30
70076;DHT22;63241;51.056;3.698;2023-06-14T09:26:00;59.30;11.30
70076;DHT22;63241;51.056;3.698;2023-06-14T09:28:47;60.10;11.20
70076;DHT22;63241;51.056;3.698;2023-06-14T09:31:35;59.60;11.30
70076;DHT22;63241;51.056;3.698;2023-06-14T09:34:30;58.90;11.10
70076;DHT22;63241;51.056;3.698;2023-06-14T09:37:35;58.70;11.40
70076;DHT22;63241;51.056;3.698;2023-06-14T09:40:28;59.50;11.40
70076;DHT22;63241;51.056;3.698;2023-06-14T09:43:14;59.60;11.40
70076;DHT22;63241;51.056;3.698;2023-06-14T09:46:06;59.10;11.30
70076;DHT22;63241;51.056;3.698;2023-06-14T09:49:01;58.70;11.50
70076;DHT22;63241;51.056;3.698;2023-06-14T09:51:58;58.00;11.40
70076;DHT22;63241;51.056;3.698;2023-06-14T09:54:48;57.10;11.80
70076;DHT22;63241;51.056;3.698;2023-06-14T09:57:35;57.30;11.60
70076;DHT22;63241;51.056;3.698;2023-06-14T10:00:29;57.20;11.80
70076;DHT22;63241;51.056;3.698;2023-06-14T10:03:31;57.00;11.60
70076;DHT22;63241;51.056;3.698;2023-06-14T10:06:17;56.20;12.10
70076;DHT22;63241;51.056;3.698;2023-06-14T10:09:07;55.20;12.10
70076;DHT22;63241;51.056;3.698;2023-06-14T10:11:55;55.10;12.10
70076;DHT22;63241;51.056;3.698;2023-06-14T10:19:06;54.60;12.10
70076;DHT22;63241;51.056;3.698;2023-06-14T10:24:55;54.40;12.60
70076;DHT22;63241;51.056;3.698;2023-06-14T10:31:39;56.80;12.50
70076;DHT22;63241;51.056;3.698;2023-06-14T10:34:24;57.40;12.50
70076;DHT22;63241;51.056;3.698;2023-06-14T10:37:14;57.20;11.90
70076;DHT22;63241;51.056;3.698;2023-06-14T10:40:09;56.20;11.90
70076;DHT22;63241;51.056;3.698;2023-06-14T10:43:20;56.60;12.00
70076;DHT22;63241;51.056;3.698;2023-06-14T10:46:20;56.10;12.00
70076;DHT22;63241;51.056;3.698;2023-06-14T10:49:09;55.00;12.50
70076;DHT22;63241;51.056;3.698;2023-06-14T10:51:57;54.50;12.40
70076;DHT22;63241;51.056;3.698;2023-06-14T10:58:22;55.40;12.70
70076;DHT22;63241;51.056;3.698;2023-06-14T11:01:10;53.80;11.80
70076;DHT22;63241;51.056;3.698;2023-06-14T11:04:00;53.30;12.40
70076;DHT22;63241;51.056;3.698;2023-06-14T11:06:49;53.40;12.50
70076;DHT22;63241;51.056;3.698;2023-06-14T11:12:41;54.00;12.60
70076;DHT22;63241;51.056;3.698;2023-06-14T11:15:51;53.70;12.80
70076;DHT22;63241;51.056;3.698;2023-06-14T11:18:38;55.10;12.60
70076;DHT22;63241;51.056;3.698;2023-06-14T11:22:00;54.80;12.30
70076;DHT22;63241;51.056;3.698;2023-06-14T11:24:58;54.60;12.40
70076;DHT22;63241;51.056;3.698;2023-06-14T11:27:46;53.70;12.10
70076;DHT22;63241;51.056;3.698;2023-06-14T11:30:34;53.00;12.60
70076;DHT22;63241;51.056;3.698;2023-06-14T11:33:20;52.50;12.90
70076;DHT22;63241;51.056;3.698;2023-06-14T11:39:32;51.30;13.10
70076;DHT22;63241;51.056;3.698;2023-06-14T11:42:19;51.90;13.10
70076;DHT22;63241;51.056;3.698;2023-06-14T11:45:10;52.40;13.20
70076;DHT22;63241;51.056;3.698;2023-06-14T11:47:58;52.70;12.50
70076;DHT22;63241;51.056;3.698;2023-06-14T11:51:03;52.80;12.90
70076;DHT22;63241;51.056;3.698;2023-06-14T11:54:11;52.20;12.80
70076;DHT22;63241;51.056;3.698;2023-06-14T11:56:57;53.00;12.30
70076;DHT22;63241;51.056;3.698;2023-06-14T11:59:44;53.20;12.20
70076;DHT22;63241;51.056;3.698;2023-06-14T12:02:57;52.40;12.20
70076;DHT22;63241;51.056;3.698;2023-06-14T12:05:48;53.30;12.70
70076;DHT22;63241;51.056;3.698;2023-06-14T12:08:37;52.80;12.60
70076;DHT22;63241;51.056;3.698;2023-06-14T12:11:34;52.60;12.90
70076;DHT22;63241;51.056;3.698;2023-06-14T12:14:20;52.50;13.10
70076;DHT22;63241;51.056;3.698;2023-06-14T12:17:22;53.10;12.90
70076;DHT22;63241;51.056;3.698;2023-06-14T12:20:21;53.70;12.70
70076;DHT22;63241;51.056;3.698;2023-06-14T12:23:21;53.10;12.60
70076;DHT22;63241;51.056;3.698;2023-06-14T12:26:07;52.00;12.70
70076;DHT22;63241;51.056;3.698;2023-06-14T12:28:53;50.20;13.40
70076;DHT22;63241;51.056;3.698;2023-06-14T12:31:41;50.80;13.70
70076;DHT22;63241;51.056;3.698;2023-06-14T12:34:54;50.20;13.70
70076;DHT22;63241;51.056;3.698;2023-06-14T12:37:41;49.70;14.00
70076;DHT22;63241;51.056;3.698;2023-06-14T12:40:27;50.00;14.00
70076;DHT22;63241;51.056;3.698;2023-06-14T12:43:20;49.80;13.80
70076;DHT22;63241;51.056;3.698;2023-06-14T12:46:10;50.20;13.60
70076;DHT22;63241;51.056;3.698;2023-06-14T12:49:00;50.30;13.90
70076;DHT22;63241;51.056;3.698;2023-06-14T12:51:47;49.90;13.70
70076;DHT22;63241;51.056;3.698;2023-06-14T12:54:33;49.60;13.90
70076;DHT22;63241;51.056;3.698;2023-06-14T13:01:23;48.70;14.30
70076;DHT22;63241;51.056;3.698;2023-06-14T13:04:09;48.70;14.70
70076;DHT22;63241;51.056;3.698;2023-06-14T13:06:55;47.90;14.50
70076;DHT22;63241;51.056;3.698;2023-06-14T13:09:42;48.30;14.80
70076;DHT22;63241;51.056;3.698;2023-06-14T13:12:36;47.70;14.70
70076;DHT22;63241;51.056;3.698;2023-06-14T13:18:22;46.50;14.80
70076;DHT22;63241;51.056;3.698;2023-06-14T13:21:09;46.70;15.10
70076;DHT22;63241;51.056;3.698;2023-06-14T13:23:55;46.30;15.00
70076;DHT22;63241;51.056;3.698;2023-06-14T13:30:15;45.40;15.30
70076;DHT22;63241;51.056;3.698;2023-06-14T13:33:01;44.10;15.90
70076;DHT22;63241;51.056;3.698;2023-06-14T13:35:47;43.40;16.50
70076;DHT22;63241;51.056;3.698;2023-06-14T13:42:28;41.50;18.00
70076;DHT22;63241;51.056;3.698;2023-06-14T13:45:16;40.20;18.70
70076;DHT22;63241;51.056;3.698;2023-06-14T13:48:03;39.60;18.80
70076;DHT22;63241;51.056;3.698;2023-06-14T13:50:52;39.20;19.00
70076;DHT22;63241;51.056;3.698;2023-06-14T13:57:19;38.00;19.70
70076;DHT22;63241;51.056;3.698;2023-06-14T14:00:06;36.60;20.60
70076;DHT22;63241;51.056;3.698;2023-06-14T14:02:53;36.00;21.10
70076;DHT22;63241;51.056;3.698;2023-06-14T14:12:27;33.60;23.20
70076;DHT22;63241;51.056;3.698;2023-06-14T14:15:13;33.20;23.60
70076;DHT22;63241;51.056;3.698;2023-06-14T14:18:00;33.00;24.30
70076;DHT22;63241;51.056;3.698;2023-06-14T14:38:58;32.40;25.40
70076;DHT22;63241;51.056;3.698;2023-06-14T14:41:44;32.50;25.60
70076;DHT22;63241;51.056;3.698;2023-06-14T14:44:31;32.80;25.40
70076;DHT22;63241;51.056;3.698;2023-06-14T14:51:21;32.60;25.60
70076;DHT22;63241;51.056;3.698;2023-06-14T14:54:08;32.30;25.00
70076;DHT22;63241;51.056;3.698;2023-06-14T14:56:54;31.80;25.20
70076;DHT22;63241;51.056;3.698;2023-06-14T15:03:43;31.30;25.80
70076;DHT22;63241;51.056;3.698;2023-06-14T15:06:29;31.20;26.00
70076;DHT22;63241;51.056;3.698;2023-06-14T15:09:16;31.20;25.80
70076;DHT22;63241;51.056;3.698;2023-06-14T15:12:02;30.90;26.20
70076;DHT22;63241;51.056;3.698;2023-06-14T15:24:26;30.60;25.30
70076;DHT22;63241;51.056;3.698;2023-06-14T15:31:19;30.50;25.90
70076;DHT22;63241;51.056;3.698;2023-06-14T15:34:06;30.50;26.10
70076;DHT22;63241;51.056;3.698;2023-06-14T15:36:52;30.30;26.30
70076;DHT22;63241;51.056;3.698;2023-06-14T15:39:39;30.40;26.90
70076;DHT22;63241;51.056;3.698;2023-06-14T16:01:35;29.90;27.40
70076;DHT22;63241;51.056;3.698;2023-06-14T16:04:21;29.80;27.40
70076;DHT22;63241;51.056;3.698;2023-06-14T16:07:07;29.80;27.00
70076;DHT22;63241;51.056;3.698;2023-06-14T16:13:15;29.40;27.50
70076;DHT22;63241;51.056;3.698;2023-06-14T16:16:02;29.30;27.80
70076;DHT22;63241;51.056;3.698;2023-06-14T16:18:48;29.30;27.80
70076;DHT22;63241;51.056;3.698;2023-06-14T16:25:39;29.20;28.10
70076;DHT22;63241;51.056;3.698;2023-06-14T16:28:25;29.10;28.40
70076;DHT22;63241;51.056;3.698;2023-06-14T16:31:12;29.00;27.90
70076;DHT22;63241;51.056;3.698;2023-06-14T16:34:03;28.70;28.40
70076;DHT22;63241;51.056;3.698;2023-06-14T16:37:28;28.50;28.50
70076;DHT22;63241;51.056;3.698;2023-06-14T16:43:28;28.60;28.90
70076;DHT22;63241;51.056;3.698;2023-06-14T16:46:14;28.60;29.00
70076;DHT22;63241;51.056;3.698;2023-06-14T16:49:18;28.60;28.60
70076;DHT22;63241;51.056;3.698;2023-06-14T16:52:29;28.60;28.50
70076;DHT22;63241;51.056;3.698;2023-06-14T16:55:16;28.70;28.30
70076;DHT22;63241;51.056;3.698;2023-06-14T16:58:02;28.50;28.50
70076;DHT22;63241;51.056;3.698;2023-06-14T17:00:48;28.50;28.50
70076;DHT22;63241;51.056;3.698;2023-06-14T17:03:50;28.50;28.70
70076;DHT22;63241;51.056;3.698;2023-06-14T17:06:43;28.50;28.50
70076;DHT22;63241;51.056;3.698;2023-06-14T17:09:29;28.40;28.60
70076;DHT22;63241;51.056;3.698;2023-06-14T17:12:15;28.30;29.00
70076;DHT22;63241;51.056;3.698;2023-06-14T17:15:03;28.20;29.10
70076;DHT22;63241;51.056;3.698;2023-06-14T17:21:22;28.00;29.50
70076;DHT22;63241;51.056;3.698;2023-06-14T17:24:09;27.90;29.60
70076;DHT22;63241;51.056;3.698;2023-06-14T17:29:57;27.70;29.60
70076;DHT22;63241;51.056;3.698;2023-06-14T17:32:44;27.60;29.80
70076;DHT22;63241;51.056;3.698;2023-06-14T17:35:30;27.50;30.00
70076;DHT22;63241;51.056;3.698;2023-06-14T17:42:06;27.40;30.20
70076;DHT22;63241;51.056;3.698;2023-06-14T17:44:53;27.40;30.20
70076;DHT22;63241;51.056;3.698;2023-06-14T17:47:40;27.40;30.00
70076;DHT22;63241;51.056;3.698;2023-06-14T17:50:40;27.40;30.10
70076;DHT22;63241;51.056;3.698;2023-06-14T17:53:43;27.30;30.40
70076;DHT22;63241;51.056;3.698;2023-06-14T17:56:30;27.10;30.30
70076;DHT22;63241;51.056;3.698;2023-06-14T17:59:17;27.00;30.50
70076;DHT22;63241;51.056;3.698;2023-06-14T18:02:03;27.00;30.40
70076;DHT22;63241;51.056;3.698;2023-06-14T18:05:02;27.00;30.60
70076;DHT22;63241;51.056;3.698;2023-06-14T18:08:13;27.00;30.60
70076;DHT22;63241;51.056;3.698;2023-06-14T18:10:59;26.90;30.60
70076;DHT22;63241;51.056;3.698;2023-06-14T18:13:46;26.90;30.50
70076;DHT22;63241;51.056;3.698;2023-06-14T18:16:33;26.80;30.60
70076;DHT22;63241;51.056;3.698;2023-06-14T18:19:44;26.60;30.50
70076;DHT22;63241;51.056;3.698;2023-06-14T18:25:39;26.50;30.90
70076;DHT22;63241;51.056;3.698;2023-06-14T18:28:25;26.30;31.20
70076;DHT22;63241;51.056;3.698;2023-06-14T18:31:35;26.20;31.30
70076;DHT22;63241;51.056;3.698;2023-06-14T18:34:39;26.20;31.60
70076;DHT22;63241;51.056;3.698;2023-06-14T18:42:48;25.90;32.20
70076;DHT22;63241;51.056;3.698;2023-06-14T18:45:56;25.90;32.70
70076;DHT22;63241;51.056;3.698;2023-06-14T18:49:21;25.90;32.70
70076;DHT22;63241;51.056;3.698;2023-06-14T18:52:08;25.80;33.00
70076;DHT22;63241;51.056;3.698;2023-06-14T18:54:55;25.70;33.50
70076;DHT22;63241;51.056;3.698;2023-06-14T19:01:33;25.50;34.10
70076;DHT22;63241;51.056;3.698;2023-06-14T19:04:19;25.40;34.30
70076;DHT22;63241;51.056;3.698;2023-06-14T19:07:05;25.40;34.90
70076;DHT22;63241;51.056;3.698;2023-06-14T19:09:53;25.30;35.20
70076;DHT22;63241;51.056;3.698;2023-06-14T19:16:49;25.20;35.50
70076;DHT22;63241;51.056;3.698;2023-06-14T19:19:36;25.00;35.70
70076;DHT22;63241;51.056;3.698;2023-06-14T19:22:22;24.90;36.30
70076;DHT22;63241;51.056;3.698;2023-06-14T19:25:27;24.80;36.50
70076;DHT22;63241;51.056;3.698;2023-06-14T19:28:24;24.70;37.10
70076;DHT22;63241;51.056;3.698;2023-06-14T19:31:18;24.60;37.30
70076;DHT22;63241;51.056;3.698;2023-06-14T19:34:04;24.60;37.40
70076;DHT22;63241;51.056;3.698;2023-06-14T19:36:51;24.50;37.70
70076;DHT22;63241;51.056;3.698;2023-06-14T19:39:58;24.50;38.00
70076;DHT22;63241;51.056;3.698;2023-06-14T19:42:51;24.40;37.90
70076;DHT22;63241;51.056;3.698;2023-06-14T19:45:38;24.30;38.00
70076;DHT22;63241;51.056;3.698;2023-06-14T19:48:24;24.20;38.10
70076;DHT22;63241;51.056;3.698;2023-06-14T19:51:11;24.10;38.30
70076;DHT22;63241;51.056;3.698;2023-06-14T20:00:19;23.80;38.70
70076;DHT22;63241;51.056;3.698;2023-06-14T20:03:05;23.70;39.10
70076;DHT22;63241;51.056;3.698;2023-06-14T20:05:58;23.60;39.50
70076;DHT22;63241;51.056;3.698;2023-06-14T20:09:14;23.60;39.60
70076;DHT22;63241;51.056;3.698;2023-06-14T20:12:06;23.50;39.80
70076;DHT22;63241;51.056;3.698;2023-06-14T20:14:52;23.40;40.30
70076;DHT22;63241;51.056;3.698;2023-06-14T20:17:39;23.30;40.60
70076;DHT22;63241;51.056;3.698;2023-06-14T20:20:44;23.20;40.70
70076;DHT22;63241;51.056;3.698;2023-06-14T20:26:26;23.00;41.10
70076;DHT22;63241;51.056;3.698;2023-06-14T20:29:12;22.90;41.40
70076;DHT22;63241;51.056;3.698;2023-06-14T20:32:08;22.80;41.70
70076;DHT22;63241;51.056;3.698;2023-06-14T20:35:05;22.80;41.70
70076;DHT22;63241;51.056;3.698;2023-06-14T20:38:14;22.70;41.90
70076;DHT22;63241;51.056;3.698;2023-06-14T20:41:01;22.70;42.10
70076;DHT22;63241;51.056;3.698;2023-06-14T20:43:47;22.60;42.20
70076;DHT22;63241;51.056;3.698;2023-06-14T20:46:34;22.50;42.50
70076;DHT22;63241;51.056;3.698;2023-06-14T20:49:49;22.50;42.70
70076;DHT22;63241;51.056;3.698;2023-06-14T20:52:42;22.40;42.70
70076;DHT22;63241;51.056;3.698;2023-06-14T20:55:28;22.40;43.00
70076;DHT22;63241;51.056;3.698;2023-06-14T20:58:16;22.30;43.10
70076;DHT22;63241;51.056;3.698;2023-06-14T21:10:22;22.00;44.60
70076;DHT22;63241;51.056;3.698;2023-06-14T21:13:09;21.90;44.30
70076;DHT22;63241;51.056;3.698;2023-06-14T21:19:49;21.80;44.50
70076;DHT22;63241;51.056;3.698;2023-06-14T21:22:38;21.80;44.60
70076;DHT22;63241;51.056;3.698;2023-06-14T21:25:30;21.70;44.70
